sensor_id;sensor_type;location;lat;lon;timestamp;P1;durP1;ratioP1;P2;durP2;ratioP2
44606;SDS011;30315;46.072;14.474;2023-03-14T00:01:08;2.83;;;2.08;;
44606;SDS011;30315;46.072;14.474;2023-03-14T00:03:43;2.40;;;1.95;;
44606;SDS011;30315;46.072;14.474;2023-03-14T00:06:10;2.15;;;1.95;;
44606;SDS011;30315;46.072;14.474;2023-03-14T00:08:38;2.80;;;1.88;;
44606;SDS011;30315;46.072;14.474;2023-03-14T00:11:06;2.85;;;2.20;;
44606;SDS011;30315;46.072;14.474;2023-03-14T00:13:34;4.15;;;1.98;;
44606;SDS011;30315;46.072;14.474;2023-03-14T00:16:02;2.20;;;1.88;;
44606;SDS011;30315;46.072;14.474;2023-03-14T00:18:34;2.10;;;1.90;;
44606;SDS011;30315;46.072;14.474;2023-03-14T00:21:01;3.05;;;2.35;;
44606;SDS011;30315;46.072;14.474;2023-03-14T00:23:30;2.70;;;1.70;;
44606;SDS011;30315;46.072;14.474;2023-03-14T00:26:19;5.35;;;2.28;;
44606;SDS011;30315;46.072;14.474;2023-03-14T00:28:50;2.13;;;2.00;;
44606;SDS011;30315;46.072;14.474;2023-03-14T00:31:18;3.70;;;2.17;;
44606;SDS011;30315;46.072;14.474;2023-03-14T00:33:45;3.30;;;2.40;;
44606;SDS011;30315;46.072;14.474;2023-03-14T00:36:13;2.55;;;1.80;;
44606;SDS011;30315;46.072;14.474;2023-03-14T00:38:44;2.72;;;2.30;;
44606;SDS011;30315;46.072;14.474;2023-03-14T00:41:15;2.45;;;2.08;;
44606;SDS011;30315;46.072;14.474;2023-03-14T00:43:44;3.40;;;2.30;;
44606;SDS011;30315;46.072;14.474;2023-03-14T00:46:11;2.42;;;2.10;;
44606;SDS011;30315;46.072;14.474;2023-03-14T00:48:39;2.58;;;1.83;;
44606;SDS011;30315;46.072;14.474;2023-03-14T00:51:07;2.78;;;2.13;;
44606;SDS011;30315;46.072;14.474;2023-03-14T00:53:35;4.45;;;2.00;;
44606;SDS011;30315;46.072;14.474;2023-03-14T00:56:04;2.30;;;2.10;;
44606;SDS011;30315;46.072;14.474;2023-03-14T00:58:32;3.25;;;2.03;;
44606;SDS011;30315;46.072;14.474;2023-03-14T01:01:04;2.42;;;1.85;;
44606;SDS011;30315;46.072;14.474;2023-03-14T01:03:32;3.72;;;2.33;;
44606;SDS011;30315;46.072;14.474;2023-03-14T01:06:06;2.38;;;1.73;;
44606;SDS011;30315;46.072;14.474;2023-03-14T01:08:38;2.90;;;1.98;;
44606;SDS011;30315;46.072;14.474;2023-03-14T01:11:06;3.03;;;2.00;;
44606;SDS011;30315;46.072;14.474;2023-03-14T01:13:38;2.13;;;2.00;;
44606;SDS011;30315;46.072;14.474;2023-03-14T01:16:06;2.38;;;2.03;;
44606;SDS011;30315;46.072;14.474;2023-03-14T01:18:36;3.28;;;2.05;;
44606;SDS011;30315;46.072;14.474;2023-03-14T01:21:09;3.28;;;2.00;;
44606;SDS011;30315;46.072;14.474;2023-03-14T01:23:48;4.13;;;2.25;;
44606;SDS011;30315;46.072;14.474;2023-03-14T01:26:17;2.65;;;2.13;;
44606;SDS011;30315;46.072;14.474;2023-03-14T01:28:46;2.45;;;2.17;;
44606;SDS011;30315;46.072;14.474;2023-03-14T01:31:14;2.00;;;1.90;;
44606;SDS011;30315;46.072;14.474;2023-03-14T01:33:42;3.22;;;2.03;;
44606;SDS011;30315;46.072;14.474;2023-03-14T01:36:10;2.25;;;2.05;;
44606;SDS011;30315;46.072;14.474;2023-03-14T01:38:38;2.35;;;2.13;;
44606;SDS011;30315;46.072;14.474;2023-03-14T01:41:11;3.65;;;2.40;;
44606;SDS011;30315;46.072;14.474;2023-03-14T01:43:42;3.35;;;2.47;;
44606;SDS011;30315;46.072;14.474;2023-03-14T01:46:52;2.45;;;2.25;;
44606;SDS011;30315;46.072;14.474;2023-03-14T01:51:52;3.22;;;2.17;;
44606;SDS011;30315;46.072;14.474;2023-03-14T01:56:57;2.50;;;2.30;;
44606;SDS011;30315;46.072;14.474;2023-03-14T01:59:30;3.03;;;2.10;;
44606;SDS011;30315;46.072;14.474;2023-03-14T02:01:59;2.30;;;2.10;;
44606;SDS011;30315;46.072;14.474;2023-03-14T02:04:30;3.47;;;2.15;;
44606;SDS011;30315;46.072;14.474;2023-03-14T02:07:04;3.95;;;2.67;;
44606;SDS011;30315;46.072;14.474;2023-03-14T02:09:39;3.35;;;2.42;;
44606;SDS011;30315;46.072;14.474;2023-03-14T02:12:12;7.28;;;2.50;;
44606;SDS011;30315;46.072;14.474;2023-03-14T02:14:46;4.07;;;2.38;;
44606;SDS011;30315;46.072;14.474;2023-03-14T02:22:58;6.03;;;2.42;;
44606;SDS011;30315;46.072;14.474;2023-03-14T02:28:00;5.55;;;2.67;;
44606;SDS011;30315;46.072;14.474;2023-03-14T02:30:29;6.70;;;2.30;;
44606;SDS011;30315;46.072;14.474;2023-03-14T02:32:58;2.58;;;2.15;;
44606;SDS011;30315;46.072;14.474;2023-03-14T02:35:33;2.95;;;2.50;;
44606;SDS011;30315;46.072;14.474;2023-03-14T02:38:20;2.45;;;2.22;;
44606;SDS011;30315;46.072;14.474;2023-03-14T02:40:53;3.75;;;2.50;;
44606;SDS011;30315;46.072;14.474;2023-03-14T02:43:20;2.80;;;2.50;;
44606;SDS011;30315;46.072;14.474;2023-03-14T02:45:54;2.92;;;2.50;;
44606;SDS011;30315;46.072;14.474;2023-03-14T02:48:30;2.60;;;2.40;;
44606;SDS011;30315;46.072;14.474;2023-03-14T02:51:01;3.88;;;2.22;;
44606;SDS011;30315;46.072;14.474;2023-03-14T02:53:29;3.10;;;2.78;;
44606;SDS011;30315;46.072;14.474;2023-03-14T02:56:04;3.55;;;2.22;;
44606;SDS011;30315;46.072;14.474;2023-03-14T02:58:33;6.07;;;2.90;;
44606;SDS011;30315;46.072;14.474;2023-03-14T03:01:09;3.90;;;2.55;;
44606;SDS011;30315;46.072;14.474;2023-03-14T03:03:37;4.40;;;2.95;;
44606;SDS011;30315;46.072;14.474;2023-03-14T03:06:04;3.42;;;2.10;;
44606;SDS011;30315;46.072;14.474;2023-03-14T03:08:31;6.45;;;2.60;;
44606;SDS011;30315;46.072;14.474;2023-03-14T03:10:59;5.68;;;2.40;;
44606;SDS011;30315;46.072;14.474;2023-03-14T03:15:59;6.10;;;2.50;;
44606;SDS011;30315;46.072;14.474;2023-03-14T03:18:26;2.80;;;2.47;;
44606;SDS011;30315;46.072;14.474;2023-03-14T03:20:53;2.70;;;2.00;;
44606;SDS011;30315;46.072;14.474;2023-03-14T03:23:21;7.32;;;3.00;;
44606;SDS011;30315;46.072;14.474;2023-03-14T03:25:48;4.53;;;2.40;;
44606;SDS011;30315;46.072;14.474;2023-03-14T03:28:17;3.92;;;2.60;;
44606;SDS011;30315;46.072;14.474;2023-03-14T03:30:44;4.18;;;2.88;;
44606;SDS011;30315;46.072;14.474;2023-03-14T03:33:12;2.95;;;2.72;;
44606;SDS011;30315;46.072;14.474;2023-03-14T03:35:47;5.15;;;2.70;;
44606;SDS011;30315;46.072;14.474;2023-03-14T03:38:21;10.05;;;2.20;;
44606;SDS011;30315;46.072;14.474;2023-03-14T03:40:51;3.72;;;2.58;;
44606;SDS011;30315;46.072;14.474;2023-03-14T03:43:19;5.28;;;2.63;;
44606;SDS011;30315;46.072;14.474;2023-03-14T03:45:48;6.03;;;2.53;;
44606;SDS011;30315;46.072;14.474;2023-03-14T03:48:15;4.55;;;2.90;;
44606;SDS011;30315;46.072;14.474;2023-03-14T03:50:45;3.60;;;2.58;;
44606;SDS011;30315;46.072;14.474;2023-03-14T03:53:16;3.05;;;2.15;;
44606;SDS011;30315;46.072;14.474;2023-03-14T03:56:00;2.58;;;2.38;;
44606;SDS011;30315;46.072;14.474;2023-03-14T03:58:28;6.97;;;2.70;;
44606;SDS011;30315;46.072;14.474;2023-03-14T04:00:55;4.97;;;2.25;;
44606;SDS011;30315;46.072;14.474;2023-03-14T04:03:22;2.97;;;2.03;;
44606;SDS011;30315;46.072;14.474;2023-03-14T04:06:00;2.80;;;2.45;;
44606;SDS011;30315;46.072;14.474;2023-03-14T04:08:39;2.75;;;2.40;;
44606;SDS011;30315;46.072;14.474;2023-03-14T04:11:29;2.58;;;2.35;;
44606;SDS011;30315;46.072;14.474;2023-03-14T04:14:20;4.00;;;1.88;;
44606;SDS011;30315;46.072;14.474;2023-03-14T04:16:54;4.25;;;2.63;;
44606;SDS011;30315;46.072;14.474;2023-03-14T04:19:21;3.13;;;2.38;;
44606;SDS011;30315;46.072;14.474;2023-03-14T04:21:50;6.65;;;2.40;;
44606;SDS011;30315;46.072;14.474;2023-03-14T04:24:19;5.05;;;2.08;;
44606;SDS011;30315;46.072;14.474;2023-03-14T04:26:48;4.28;;;2.55;;
44606;SDS011;30315;46.072;14.474;2023-03-14T04:29:15;3.35;;;2.40;;
44606;SDS011;30315;46.072;14.474;2023-03-14T04:31:44;5.35;;;2.40;;
44606;SDS011;30315;46.072;14.474;2023-03-14T04:34:11;6.07;;;2.50;;
44606;SDS011;30315;46.072;14.474;2023-03-14T04:36:47;4.03;;;2.08;;
44606;SDS011;30315;46.072;14.474;2023-03-14T04:39:20;3.60;;;1.90;;
44606;SDS011;30315;46.072;14.474;2023-03-14T04:41:55;2.83;;;2.42;;
44606;SDS011;30315;46.072;14.474;2023-03-14T04:44:23;2.92;;;2.10;;
44606;SDS011;30315;46.072;14.474;2023-03-14T04:46:52;3.50;;;2.30;;
44606;SDS011;30315;46.072;14.474;2023-03-14T04:49:19;6.97;;;2.40;;
44606;SDS011;30315;46.072;14.474;2023-03-14T04:51:46;6.10;;;2.42;;
44606;SDS011;30315;46.072;14.474;2023-03-14T04:54:13;4.00;;;2.33;;
44606;SDS011;30315;46.072;14.474;2023-03-14T04:56:40;4.90;;;2.15;;
44606;SDS011;30315;46.072;14.474;2023-03-14T04:59:07;3.72;;;2.50;;
44606;SDS011;30315;46.072;14.474;2023-03-14T05:04:22;6.43;;;1.92;;
44606;SDS011;30315;46.072;14.474;2023-03-14T05:07:02;4.30;;;2.15;;
44606;SDS011;30315;46.072;14.474;2023-03-14T05:09:44;4.85;;;2.25;;
44606;SDS011;30315;46.072;14.474;2023-03-14T05:12:25;4.82;;;2.33;;
44606;SDS011;30315;46.072;14.474;2023-03-14T05:15:02;4.65;;;1.92;;
44606;SDS011;30315;46.072;14.474;2023-03-14T05:17:56;5.72;;;2.92;;
44606;SDS011;30315;46.072;14.474;2023-03-14T05:20:56;6.95;;;2.40;;
44606;SDS011;30315;46.072;14.474;2023-03-14T05:23:44;4.78;;;2.55;;
44606;SDS011;30315;46.072;14.474;2023-03-14T05:26:23;6.00;;;2.25;;
44606;SDS011;30315;46.072;14.474;2023-03-14T05:29:10;8.00;;;2.45;;
44606;SDS011;30315;46.072;14.474;2023-03-14T05:31:48;7.07;;;2.20;;
44606;SDS011;30315;46.072;14.474;2023-03-14T05:34:24;7.07;;;2.88;;
44606;SDS011;30315;46.072;14.474;2023-03-14T05:37:07;2.78;;;1.85;;
44606;SDS011;30315;46.072;14.474;2023-03-14T05:40:12;5.38;;;2.47;;
44606;SDS011;30315;46.072;14.474;2023-03-14T05:43:00;5.05;;;2.20;;
44606;SDS011;30315;46.072;14.474;2023-03-14T05:45:55;3.50;;;2.20;;
44606;SDS011;30315;46.072;14.474;2023-03-14T05:48:38;3.38;;;2.05;;
44606;SDS011;30315;46.072;14.474;2023-03-14T05:51:23;6.20;;;1.95;;
44606;SDS011;30315;46.072;14.474;2023-03-14T05:54:16;5.65;;;2.65;;
44606;SDS011;30315;46.072;14.474;2023-03-14T05:57:06;3.53;;;2.13;;
44606;SDS011;30315;46.072;14.474;2023-03-14T06:00:03;2.88;;;1.83;;
44606;SDS011;30315;46.072;14.474;2023-03-14T06:02:47;4.93;;;2.10;;
44606;SDS011;30315;46.072;14.474;2023-03-14T06:05:21;3.75;;;1.95;;
44606;SDS011;30315;46.072;14.474;2023-03-14T06:07:52;4.22;;;1.80;;
44606;SDS011;30315;46.072;14.474;2023-03-14T06:10:19;6.40;;;2.20;;
44606;SDS011;30315;46.072;14.474;2023-03-14T06:12:46;6.13;;;2.90;;
44606;SDS011;30315;46.072;14.474;2023-03-14T06:15:14;4.60;;;2.92;;
44606;SDS011;30315;46.072;14.474;2023-03-14T06:17:43;6.03;;;3.33;;
44606;SDS011;30315;46.072;14.474;2023-03-14T06:20:11;3.65;;;2.70;;
44606;SDS011;30315;46.072;14.474;2023-03-14T06:22:39;5.18;;;2.65;;
44606;SDS011;30315;46.072;14.474;2023-03-14T06:25:10;6.22;;;2.53;;
44606;SDS011;30315;46.072;14.474;2023-03-14T06:27:37;3.95;;;2.22;;
44606;SDS011;30315;46.072;14.474;2023-03-14T06:30:04;4.20;;;2.33;;
44606;SDS011;30315;46.072;14.474;2023-03-14T06:32:32;3.75;;;1.90;;
44606;SDS011;30315;46.072;14.474;2023-03-14T06:35:04;7.07;;;2.03;;
44606;SDS011;30315;46.072;14.474;2023-03-14T06:37:36;5.68;;;2.25;;
44606;SDS011;30315;46.072;14.474;2023-03-14T06:40:04;3.15;;;2.13;;
44606;SDS011;30315;46.072;14.474;2023-03-14T06:42:59;6.18;;;2.10;;
44606;SDS011;30315;46.072;14.474;2023-03-14T06:45:29;14.25;;;9.75;;
44606;SDS011;30315;46.072;14.474;2023-03-14T06:47:57;14.60;;;9.63;;
44606;SDS011;30315;46.072;14.474;2023-03-14T06:50:33;3.50;;;2.00;;
44606;SDS011;30315;46.072;14.474;2023-03-14T06:53:00;4.53;;;2.10;;
44606;SDS011;30315;46.072;14.474;2023-03-14T06:55:28;5.60;;;1.90;;
44606;SDS011;30315;46.072;14.474;2023-03-14T06:57:55;9.20;;;4.75;;
44606;SDS011;30315;46.072;14.474;2023-03-14T07:00:23;7.93;;;7.05;;
44606;SDS011;30315;46.072;14.474;2023-03-14T07:02:54;4.03;;;2.40;;
44606;SDS011;30315;46.072;14.474;2023-03-14T07:05:28;8.32;;;1.92;;
44606;SDS011;30315;46.072;14.474;2023-03-14T07:07:55;2.25;;;2.03;;
44606;SDS011;30315;46.072;14.474;2023-03-14T07:10:23;3.67;;;1.70;;
44606;SDS011;30315;46.072;14.474;2023-03-14T07:12:50;1.95;;;1.75;;
44606;SDS011;30315;46.072;14.474;2023-03-14T07:15:22;13.32;;;5.00;;
44606;SDS011;30315;46.072;14.474;2023-03-14T07:17:54;4.30;;;1.85;;
44606;SDS011;30315;46.072;14.474;2023-03-14T07:20:22;3.63;;;1.88;;
44606;SDS011;30315;46.072;14.474;2023-03-14T07:22:50;5.20;;;2.80;;
44606;SDS011;30315;46.072;14.474;2023-03-14T07:25:26;3.25;;;2.15;;
44606;SDS011;30315;46.072;14.474;2023-03-14T07:27:53;6.35;;;1.85;;
44606;SDS011;30315;46.072;14.474;2023-03-14T07:30:20;4.47;;;1.90;;
44606;SDS011;30315;46.072;14.474;2023-03-14T07:32:49;5.38;;;2.25;;
44606;SDS011;30315;46.072;14.474;2023-03-14T07:35:22;6.78;;;1.95;;
44606;SDS011;30315;46.072;14.474;2023-03-14T07:37:57;5.20;;;2.17;;
44606;SDS011;30315;46.072;14.474;2023-03-14T07:40:40;3.35;;;1.90;;
44606;SDS011;30315;46.072;14.474;2023-03-14T07:43:12;4.85;;;1.88;;
44606;SDS011;30315;46.072;14.474;2023-03-14T07:45:47;2.40;;;1.65;;
44606;SDS011;30315;46.072;14.474;2023-03-14T07:48:24;4.65;;;2.22;;
44606;SDS011;30315;46.072;14.474;2023-03-14T07:50:53;3.67;;;1.90;;
44606;SDS011;30315;46.072;14.474;2023-03-14T07:53:22;5.57;;;2.47;;
44606;SDS011;30315;46.072;14.474;2023-03-14T07:55:57;4.85;;;1.90;;
44606;SDS011;30315;46.072;14.474;2023-03-14T07:58:24;4.50;;;1.88;;
44606;SDS011;30315;46.072;14.474;2023-03-14T08:00:52;5.22;;;2.08;;
44606;SDS011;30315;46.072;14.474;2023-03-14T08:03:19;4.10;;;1.77;;
44606;SDS011;30315;46.072;14.474;2023-03-14T08:05:47;5.20;;;1.73;;
44606;SDS011;30315;46.072;14.474;2023-03-14T08:08:22;5.38;;;1.90;;
44606;SDS011;30315;46.072;14.474;2023-03-14T08:10:49;4.93;;;2.20;;
44606;SDS011;30315;46.072;14.474;2023-03-14T08:13:16;4.97;;;1.95;;
44606;SDS011;30315;46.072;14.474;2023-03-14T08:15:46;5.43;;;2.42;;
44606;SDS011;30315;46.072;14.474;2023-03-14T08:18:15;5.03;;;1.52;;
44606;SDS011;30315;46.072;14.474;2023-03-14T08:20:42;5.72;;;1.95;;
44606;SDS011;30315;46.072;14.474;2023-03-14T08:23:09;2.50;;;2.10;;
44606;SDS011;30315;46.072;14.474;2023-03-14T08:25:37;2.10;;;1.90;;
44606;SDS011;30315;46.072;14.474;2023-03-14T08:28:04;5.00;;;2.38;;
44606;SDS011;30315;46.072;14.474;2023-03-14T08:30:31;7.20;;;1.90;;
44606;SDS011;30315;46.072;14.474;2023-03-14T08:32:58;6.13;;;2.40;;
44606;SDS011;30315;46.072;14.474;2023-03-14T08:35:26;4.18;;;1.80;;
44606;SDS011;30315;46.072;14.474;2023-03-14T08:37:53;2.70;;;1.80;;
44606;SDS011;30315;46.072;14.474;2023-03-14T08:40:20;4.68;;;1.88;;
44606;SDS011;30315;46.072;14.474;2023-03-14T08:42:47;4.25;;;1.92;;
44606;SDS011;30315;46.072;14.474;2023-03-14T08:45:15;2.47;;;1.75;;
44606;SDS011;30315;46.072;14.474;2023-03-14T08:47:43;2.97;;;2.20;;
44606;SDS011;30315;46.072;14.474;2023-03-14T08:50:11;4.80;;;1.75;;
44606;SDS011;30315;46.072;14.474;2023-03-14T08:52:42;5.93;;;2.00;;
44606;SDS011;30315;46.072;14.474;2023-03-14T08:55:09;2.17;;;1.60;;
44606;SDS011;30315;46.072;14.474;2023-03-14T08:57:37;1.63;;;1.52;;
44606;SDS011;30315;46.072;14.474;2023-03-14T09:00:04;3.78;;;1.70;;
44606;SDS011;30315;46.072;14.474;2023-03-14T09:02:39;3.00;;;1.77;;
44606;SDS011;30315;46.072;14.474;2023-03-14T09:05:06;2.83;;;1.90;;
44606;SDS011;30315;46.072;14.474;2023-03-14T09:07:34;3.88;;;1.77;;
44606;SDS011;30315;46.072;14.474;2023-03-14T09:10:02;3.30;;;1.60;;
44606;SDS011;30315;46.072;14.474;2023-03-14T09:12:29;3.92;;;2.17;;
44606;SDS011;30315;46.072;14.474;2023-03-14T09:14:56;3.10;;;1.83;;
44606;SDS011;30315;46.072;14.474;2023-03-14T09:17:24;4.75;;;2.10;;
44606;SDS011;30315;46.072;14.474;2023-03-14T09:19:51;3.53;;;2.13;;
44606;SDS011;30315;46.072;14.474;2023-03-14T09:22:18;4.05;;;1.73;;
44606;SDS011;30315;46.072;14.474;2023-03-14T09:24:45;3.75;;;2.13;;
44606;SDS011;30315;46.072;14.474;2023-03-14T09:27:12;5.97;;;2.42;;
44606;SDS011;30315;46.072;14.474;2023-03-14T09:29:39;2.63;;;2.42;;
44606;SDS011;30315;46.072;14.474;2023-03-14T09:32:06;5.82;;;3.03;;
44606;SDS011;30315;46.072;14.474;2023-03-14T09:34:33;3.05;;;2.28;;
44606;SDS011;30315;46.072;14.474;2023-03-14T09:37:02;4.57;;;2.95;;
44606;SDS011;30315;46.072;14.474;2023-03-14T09:39:29;3.60;;;2.30;;
44606;SDS011;30315;46.072;14.474;2023-03-14T09:41:56;3.10;;;2.15;;
44606;SDS011;30315;46.072;14.474;2023-03-14T09:44:30;3.47;;;2.20;;
44606;SDS011;30315;46.072;14.474;2023-03-14T09:47:05;3.72;;;1.83;;
44606;SDS011;30315;46.072;14.474;2023-03-14T09:49:34;4.10;;;2.05;;
44606;SDS011;30315;46.072;14.474;2023-03-14T09:52:15;3.97;;;2.03;;
44606;SDS011;30315;46.072;14.474;2023-03-14T09:54:56;6.30;;;1.85;;
44606;SDS011;30315;46.072;14.474;2023-03-14T09:57:26;2.15;;;1.65;;
44606;SDS011;30315;46.072;14.474;2023-03-14T09:59:54;3.20;;;1.60;;
44606;SDS011;30315;46.072;14.474;2023-03-14T10:02:32;4.72;;;1.88;;
44606;SDS011;30315;46.072;14.474;2023-03-14T10:05:01;3.63;;;1.52;;
44606;SDS011;30315;46.072;14.474;2023-03-14T10:07:34;3.70;;;1.77;;
44606;SDS011;30315;46.072;14.474;2023-03-14T10:10:08;6.22;;;1.95;;
44606;SDS011;30315;46.072;14.474;2023-03-14T10:12:43;4.25;;;1.88;;
44606;SDS011;30315;46.072;14.474;2023-03-14T10:15:25;3.28;;;1.48;;
44606;SDS011;30315;46.072;14.474;2023-03-14T10:17:58;2.40;;;1.70;;
44606;SDS011;30315;46.072;14.474;2023-03-14T10:20:34;2.33;;;1.80;;
44606;SDS011;30315;46.072;14.474;2023-03-14T10:23:04;2.08;;;1.60;;
44606;SDS011;30315;46.072;14.474;2023-03-14T10:25:34;3.38;;;1.83;;
44606;SDS011;30315;46.072;14.474;2023-03-14T10:28:09;4.28;;;1.73;;
44606;SDS011;30315;46.072;14.474;2023-03-14T10:30:52;1.70;;;1.60;;
44606;SDS011;30315;46.072;14.474;2023-03-14T10:33:20;3.35;;;1.75;;
44606;SDS011;30315;46.072;14.474;2023-03-14T10:35:56;3.35;;;1.67;;
44606;SDS011;30315;46.072;14.474;2023-03-14T10:38:28;3.78;;;1.90;;
44606;SDS011;30315;46.072;14.474;2023-03-14T10:41:26;2.15;;;1.65;;
44606;SDS011;30315;46.072;14.474;2023-03-14T10:43:57;3.20;;;1.90;;
44606;SDS011;30315;46.072;14.474;2023-03-14T10:46:26;4.07;;;1.83;;
44606;SDS011;30315;46.072;14.474;2023-03-14T10:49:35;1.80;;;1.70;;
44606;SDS011;30315;46.072;14.474;2023-03-14T10:52:20;2.45;;;1.70;;
44606;SDS011;30315;46.072;14.474;2023-03-14T10:55:10;2.20;;;1.48;;
44606;SDS011;30315;46.072;14.474;2023-03-14T10:57:42;2.72;;;1.63;;
44606;SDS011;30315;46.072;14.474;2023-03-14T11:00:18;4.32;;;1.67;;
44606;SDS011;30315;46.072;14.474;2023-03-14T11:05:37;3.58;;;1.70;;
44606;SDS011;30315;46.072;14.474;2023-03-14T11:11:25;3.92;;;2.47;;
44606;SDS011;30315;46.072;14.474;2023-03-14T11:22:21;5.93;;;2.38;;
44606;SDS011;30315;46.072;14.474;2023-03-14T11:30:17;4.70;;;2.13;;
44606;SDS011;30315;46.072;14.474;2023-03-14T11:32:50;4.78;;;2.92;;
44606;SDS011;30315;46.072;14.474;2023-03-14T11:35:28;3.08;;;2.60;;
44606;SDS011;30315;46.072;14.474;2023-03-14T11:40:57;2.33;;;2.13;;
44606;SDS011;30315;46.072;14.474;2023-03-14T11:46:10;4.78;;;2.63;;
44606;SDS011;30315;46.072;14.474;2023-03-14T11:48:43;4.15;;;2.15;;
44606;SDS011;30315;46.072;14.474;2023-03-14T11:51:18;4.38;;;2.53;;
44606;SDS011;30315;46.072;14.474;2023-03-14T11:54:55;3.00;;;2.15;;
44606;SDS011;30315;46.072;14.474;2023-03-14T11:57:01;4.05;;;2.42;;
44606;SDS011;30315;46.072;14.474;2023-03-14T12:13:11;3.95;;;2.58;;
44606;SDS011;30315;46.072;14.474;2023-03-14T12:15:41;6.25;;;2.28;;
44606;SDS011;30315;46.072;14.474;2023-03-14T12:18:20;5.35;;;2.35;;
44606;SDS011;30315;46.072;14.474;2023-03-14T12:20:54;3.10;;;2.20;;
44606;SDS011;30315;46.072;14.474;2023-03-14T12:23:26;4.93;;;2.15;;
44606;SDS011;30315;46.072;14.474;2023-03-14T12:26:13;3.80;;;2.33;;
44606;SDS011;30315;46.072;14.474;2023-03-14T12:28:48;3.83;;;2.20;;
44606;SDS011;30315;46.072;14.474;2023-03-14T12:34:41;4.55;;;3.15;;
44606;SDS011;30315;46.072;14.474;2023-03-14T12:42:13;3.17;;;2.33;;
44606;SDS011;30315;46.072;14.474;2023-03-14T12:48:14;2.47;;;1.87;;
44606;SDS011;30315;46.072;14.474;2023-03-14T12:51:04;4.32;;;1.88;;
44606;SDS011;30315;46.072;14.474;2023-03-14T12:56:28;3.45;;;2.00;;
44606;SDS011;30315;46.072;14.474;2023-03-14T13:04:45;2.83;;;1.90;;
44606;SDS011;30315;46.072;14.474;2023-03-14T13:10:26;3.83;;;2.17;;
44606;SDS011;30315;46.072;14.474;2023-03-14T13:12:56;4.32;;;3.35;;
44606;SDS011;30315;46.072;14.474;2023-03-14T13:15:40;3.53;;;3.00;;
44606;SDS011;30315;46.072;14.474;2023-03-14T13:18:10;4.78;;;2.70;;
44606;SDS011;30315;46.072;14.474;2023-03-14T13:20:38;2.58;;;1.90;;
44606;SDS011;30315;46.072;14.474;2023-03-14T13:23:22;2.33;;;2.10;;
44606;SDS011;30315;46.072;14.474;2023-03-14T13:25:54;3.63;;;1.85;;
44606;SDS011;30315;46.072;14.474;2023-03-14T13:28:22;3.83;;;2.20;;
44606;SDS011;30315;46.072;14.474;2023-03-14T13:30:50;2.65;;;2.25;;
44606;SDS011;30315;46.072;14.474;2023-03-14T13:33:23;3.30;;;2.65;;
44606;SDS011;30315;46.072;14.474;2023-03-14T13:35:54;4.93;;;3.33;;
44606;SDS011;30315;46.072;14.474;2023-03-14T13:38:27;6.82;;;3.75;;
44606;SDS011;30315;46.072;14.474;2023-03-14T13:40:56;8.48;;;3.90;;
44606;SDS011;30315;46.072;14.474;2023-03-14T13:43:34;6.75;;;3.55;;
44606;SDS011;30315;46.072;14.474;2023-03-14T13:48:43;3.03;;;2.40;;
44606;SDS011;30315;46.072;14.474;2023-03-14T13:51:19;2.13;;;1.92;;
44606;SDS011;30315;46.072;14.474;2023-03-14T13:53:48;2.50;;;2.25;;
44606;SDS011;30315;46.072;14.474;2023-03-14T13:56:17;2.67;;;2.27;;
44606;SDS011;30315;46.072;14.474;2023-03-14T13:58:45;3.75;;;2.40;;
44606;SDS011;30315;46.072;14.474;2023-03-14T14:03:40;2.65;;;2.45;;
44606;SDS011;30315;46.072;14.474;2023-03-14T14:06:11;3.05;;;2.50;;
44606;SDS011;30315;46.072;14.474;2023-03-14T14:08:52;2.58;;;1.67;;
44606;SDS011;30315;46.072;14.474;2023-03-14T14:11:28;1.98;;;1.80;;
44606;SDS011;30315;46.072;14.474;2023-03-14T14:14:14;1.70;;;1.60;;
44606;SDS011;30315;46.072;14.474;2023-03-14T14:16:44;2.85;;;1.83;;
44606;SDS011;30315;46.072;14.474;2023-03-14T14:19:14;2.83;;;2.30;;
44606;SDS011;30315;46.072;14.474;2023-03-14T14:21:42;3.63;;;2.90;;
44606;SDS011;30315;46.072;14.474;2023-03-14T14:24:11;3.25;;;2.95;;
44606;SDS011;30315;46.072;14.474;2023-03-14T14:26:47;3.72;;;3.42;;
44606;SDS011;30315;46.072;14.474;2023-03-14T14:29:24;6.43;;;3.60;;
44606;SDS011;30315;46.072;14.474;2023-03-14T14:37:23;4.60;;;3.70;;
44606;SDS011;30315;46.072;14.474;2023-03-14T14:39:56;5.97;;;4.18;;
44606;SDS011;30315;46.072;14.474;2023-03-14T14:42:29;5.00;;;4.10;;
44606;SDS011;30315;46.072;14.474;2023-03-14T14:44:57;6.35;;;4.15;;
44606;SDS011;30315;46.072;14.474;2023-03-14T14:47:26;7.93;;;4.85;;
44606;SDS011;30315;46.072;14.474;2023-03-14T14:49:56;5.70;;;4.68;;
44606;SDS011;30315;46.072;14.474;2023-03-14T14:55:16;9.32;;;6.57;;
44606;SDS011;30315;46.072;14.474;2023-03-14T14:57:48;11.43;;;8.68;;
44606;SDS011;30315;46.072;14.474;2023-03-14T15:00:21;11.07;;;9.88;;
44606;SDS011;30315;46.072;14.474;2023-03-14T15:02:53;11.30;;;10.10;;
44606;SDS011;30315;46.072;14.474;2023-03-14T15:05:25;8.10;;;7.32;;
44606;SDS011;30315;46.072;14.474;2023-03-14T15:07:53;6.68;;;5.05;;
44606;SDS011;30315;46.072;14.474;2023-03-14T15:10:21;4.78;;;4.35;;
44606;SDS011;30315;46.072;14.474;2023-03-14T15:12:50;4.75;;;4.22;;
44606;SDS011;30315;46.072;14.474;2023-03-14T15:15:18;6.63;;;4.32;;
44606;SDS011;30315;46.072;14.474;2023-03-14T15:17:45;5.18;;;3.63;;
44606;SDS011;30315;46.072;14.474;2023-03-14T15:20:15;3.70;;;3.40;;
44606;SDS011;30315;46.072;14.474;2023-03-14T15:22:44;4.70;;;3.55;;
44606;SDS011;30315;46.072;14.474;2023-03-14T15:25:12;5.15;;;3.42;;
44606;SDS011;30315;46.072;14.474;2023-03-14T15:27:59;3.97;;;3.10;;
44606;SDS011;30315;46.072;14.474;2023-03-14T15:30:26;5.03;;;3.17;;
44606;SDS011;30315;46.072;14.474;2023-03-14T15:32:52;4.32;;;3.90;;
44606;SDS011;30315;46.072;14.474;2023-03-14T15:35:19;4.72;;;4.18;;
44606;SDS011;30315;46.072;14.474;2023-03-14T15:37:46;4.85;;;4.40;;
44606;SDS011;30315;46.072;14.474;2023-03-14T15:40:13;8.10;;;5.05;;
44606;SDS011;30315;46.072;14.474;2023-03-14T15:42:42;6.97;;;4.80;;
44606;SDS011;30315;46.072;14.474;2023-03-14T15:45:09;6.57;;;4.97;;
44606;SDS011;30315;46.072;14.474;2023-03-14T15:47:36;6.03;;;4.95;;
44606;SDS011;30315;46.072;14.474;2023-03-14T15:50:04;8.52;;;6.57;;
44606;SDS011;30315;46.072;14.474;2023-03-14T15:52:31;12.77;;;8.38;;
44606;SDS011;30315;46.072;14.474;2023-03-14T15:54:58;15.52;;;8.75;;
44606;SDS011;30315;46.072;14.474;2023-03-14T15:57:24;9.32;;;7.32;;
44606;SDS011;30315;46.072;14.474;2023-03-14T15:59:52;9.05;;;7.40;;
44606;SDS011;30315;46.072;14.474;2023-03-14T16:02:19;10.15;;;6.57;;
44606;SDS011;30315;46.072;14.474;2023-03-14T16:04:46;8.85;;;6.88;;
44606;SDS011;30315;46.072;14.474;2023-03-14T16:07:13;8.43;;;6.28;;
44606;SDS011;30315;46.072;14.474;2023-03-14T16:09:40;10.30;;;6.88;;
44606;SDS011;30315;46.072;14.474;2023-03-14T16:12:07;9.82;;;6.80;;
44606;SDS011;30315;46.072;14.474;2023-03-14T16:14:35;8.80;;;6.68;;
44606;SDS011;30315;46.072;14.474;2023-03-14T16:17:02;10.27;;;6.85;;
44606;SDS011;30315;46.072;14.474;2023-03-14T16:19:29;8.50;;;6.95;;
44606;SDS011;30315;46.072;14.474;2023-03-14T16:21:57;10.50;;;6.78;;
44606;SDS011;30315;46.072;14.474;2023-03-14T16:24:24;8.70;;;6.93;;
44606;SDS011;30315;46.072;14.474;2023-03-14T16:26:51;9.68;;;7.03;;
44606;SDS011;30315;46.072;14.474;2023-03-14T16:29:18;9.50;;;7.25;;
44606;SDS011;30315;46.072;14.474;2023-03-14T16:31:45;11.68;;;8.40;;
44606;SDS011;30315;46.072;14.474;2023-03-14T16:34:12;14.57;;;8.80;;
44606;SDS011;30315;46.072;14.474;2023-03-14T16:36:40;12.45;;;8.18;;